createdAt,value
2022-09-20T00:04:43.641Z,90.23
2022-09-20T00:09:44.888Z,90.46
2022-09-20T00:14:46.193Z,90.67
2022-09-20T00:19:47.533Z,90.86
2022-09-20T00:24:49.216Z,91.04
2022-09-20T00:29:50.607Z,90.21
2022-09-20T00:35:10.621Z,91.22
2022-09-20T00:40:20.494Z,91.53
2022-09-20T00:45:24.156Z,91.45
2022-09-20T00:50:44.543Z,91.43
2022-09-20T00:56:00.902Z,93.37
2022-09-20T01:01:05.496Z,91.77
2022-09-20T01:06:09.808Z,91.90
2022-09-20T01:11:11.356Z,91.05
2022-09-20T01:16:14.970Z,91.12
2022-09-20T01:21:18.393Z,91.19
2022-09-20T01:26:31.530Z,92.17
2022-09-20T01:31:36.303Z,91.47
2022-09-20T01:36:52.217Z,91.85
2022-09-20T01:41:58.621Z,90.80
2022-09-20T01:47:10.514Z,91.76
2022-09-20T01:52:30.677Z,92.86
2022-09-20T01:57:53.356Z,90.81
2022-09-20T02:03:29.445Z,90.77
2022-09-20T02:09:12.699Z,95.14
2022-09-20T02:15:09.997Z,92.66
2022-09-20T02:20:44.717Z,91.98
2022-09-20T02:26:14.105Z,92.23
2022-09-20T02:31:21.446Z,91.22
2022-09-20T02:36:47.126Z,91.34
2022-09-20T02:42:15.996Z,91.52
2022-09-20T02:47:34.016Z,90.63
2022-09-20T02:53:13.521Z,91.03
2022-09-20T02:58:40.815Z,91.38
2022-09-20T03:04:38.696Z,92.31
2022-09-20T03:10:12.632Z,91.25
2022-09-20T03:15:30.672Z,92.50
2022-09-20T03:20:46.173Z,92.58
2022-09-20T03:25:57.072Z,92.25
2022-09-20T03:31:15.079Z,92.74
2022-09-20T03:36:32.889Z,92.51
2022-09-20T03:41:58.393Z,91.97
2022-09-20T03:47:37.392Z,95.76
2022-09-20T03:52:51.796Z,92.75
2022-09-20T03:58:11.016Z,93.00
2022-09-20T04:03:32.569Z,92.77
2022-09-20T04:08:48.469Z,93.21
2022-09-20T04:14:16.728Z,93.47
2022-09-20T04:19:29.654Z,93.35
2022-09-20T04:24:48.264Z,93.77
2022-09-20T04:30:05.290Z,93.91
2022-09-20T04:35:44.184Z,93.81
2022-09-20T04:41:37.754Z,93.91
2022-09-20T04:46:55.860Z,93.72
2022-09-20T04:52:26.911Z,93.56
2022-09-20T04:58:07.635Z,93.93
2022-09-20T05:03:32.009Z,93.94
2022-09-20T05:08:46.613Z,93.61
2022-09-20T05:13:50.966Z,94.14
2022-09-20T05:19:15.392Z,95.93
2022-09-20T05:24:53.948Z,95.88
2022-09-20T05:30:04.438Z,94.17
2022-09-20T05:35:12.887Z,95.92
2022-09-20T05:40:29.234Z,94.23
2022-09-20T05:46:14.797Z,96.15
2022-09-20T05:51:51.668Z,94.10
2022-09-20T05:57:20.925Z,93.57
2022-09-20T06:02:37.792Z,94.89
2022-09-20T06:07:57.413Z,96.62
2022-09-20T06:13:13.742Z,94.40
2022-09-20T06:18:40.455Z,93.62
2022-09-20T06:23:42.188Z,94.04
2022-09-20T06:28:49.952Z,94.88
2022-09-20T06:33:55.051Z,94.46
2022-09-20T06:39:18.112Z,94.31
2022-09-20T06:44:19.505Z,94.98
2022-09-20T06:49:21.119Z,94.55
2022-09-20T06:54:23.158Z,94.58
2022-09-20T06:59:24.545Z,94.18
2022-09-20T07:04:26.860Z,94.57
2022-09-20T07:09:29.264Z,94.22
2022-09-20T07:14:30.992Z,94.59
2022-09-20T07:19:32.380Z,94.29
2022-09-20T07:24:33.629Z,94.27
2022-09-20T07:29:35.345Z,94.68
2022-09-20T07:34:36.646Z,94.22
2022-09-20T07:39:38.216Z,96.44
2022-09-20T07:44:42.168Z,93.90
2022-09-20T07:49:43.509Z,96.79
2022-09-20T07:54:45.880Z,94.36
2022-09-20T07:59:47.189Z,94.98
2022-09-20T08:04:49.863Z,94.83
2022-09-20T08:09:51.202Z,94.44
2022-09-20T08:14:52.549Z,95.50
2022-09-20T08:19:53.870Z,95.61
2022-09-20T08:24:55.103Z,93.53
2022-09-20T08:29:57.436Z,93.14
2022-09-20T08:34:59.033Z,92.81
2022-09-20T08:40:00.563Z,92.58
2022-09-20T08:45:07.062Z,91.93
2022-09-20T08:50:17.733Z,90.97
2022-09-20T08:55:27.981Z,91.43
2022-09-20T09:00:33.356Z,92.05
2022-09-20T09:05:47.878Z,90.82
2022-09-20T09:10:54.610Z,90.74
2022-09-20T09:15:59.794Z,90.98
2022-09-20T09:21:04.791Z,90.40
2022-09-20T09:26:15.881Z,88.63
2022-09-20T09:31:25.825Z,89.72
2022-09-20T09:36:27.397Z,88.51
2022-09-20T09:41:33.359Z,84.47
2022-09-20T09:46:36.352Z,88.48
2022-09-20T09:51:38.584Z,85.19
2022-09-20T09:56:52.327Z,87.20
2022-09-20T10:02:06.597Z,87.33
2022-09-20T10:07:35.928Z,86.46
2022-09-20T10:13:04.073Z,87.96
2022-09-20T10:18:16.277Z,85.84
2022-09-20T10:23:51.869Z,88.11
2022-09-20T10:29:00.986Z,86.78
2022-09-20T10:34:24.073Z,87.61
2022-09-20T10:39:35.338Z,86.94
2022-09-20T10:45:11.863Z,81.78
2022-09-20T10:50:43.465Z,83.93
2022-09-20T10:56:13.045Z,83.33
2022-09-20T11:01:29.845Z,83.50
2022-09-20T11:06:51.489Z,82.08
2022-09-20T11:12:01.088Z,84.20
2022-09-20T11:17:16.648Z,82.27
2022-09-20T11:22:29.498Z,83.59
2022-09-20T11:27:38.249Z,83.86
2022-09-20T11:32:46.381Z,84.25
2022-09-20T11:37:57.222Z,76.66
2022-09-20T11:43:06.043Z,77.00
2022-09-20T11:48:19.903Z,78.19
2022-09-20T11:53:49.312Z,80.83
2022-09-20T11:58:55.122Z,79.54
2022-09-20T12:04:27.894Z,76.34
2022-09-20T12:09:35.154Z,78.67
2022-09-20T12:14:36.617Z,72.72
2022-09-20T12:19:38.730Z,77.50
2022-09-20T12:24:45.193Z,79.07
2022-09-20T12:29:50.097Z,79.96
2022-09-20T12:34:52.444Z,79.37
2022-09-20T12:39:55.551Z,69.24
2022-09-20T12:45:04.630Z,71.10
2022-09-20T12:50:34.138Z,78.09
2022-09-20T12:55:45.640Z,73.29
2022-09-20T13:00:51.792Z,72.96
2022-09-20T13:06:05.918Z,75.82
2022-09-20T13:11:07.217Z,75.06
2022-09-20T13:16:22.260Z,77.20
2022-09-20T13:21:24.011Z,73.83
2022-09-20T13:26:40.827Z,76.15
2022-09-20T13:31:43.069Z,73.49
2022-09-20T13:36:45.943Z,75.70
2022-09-20T13:41:48.433Z,72.92
2022-09-20T13:46:49.782Z,74.05
2022-09-20T13:51:51.987Z,72.42
2022-09-20T13:56:56.190Z,72.58
2022-09-20T14:01:57.679Z,74.54
2022-09-20T14:07:00.612Z,73.46
2022-09-20T14:12:04.596Z,73.78
2022-09-20T14:17:09.425Z,73.59
2022-09-20T14:22:26.703Z,74.92
2022-09-20T14:27:31.008Z,71.36
2022-09-20T14:33:02.065Z,74.44
2022-09-20T14:38:10.133Z,73.85
2022-09-20T14:43:32.599Z,75.46
2022-09-20T14:48:36.780Z,75.04
2022-09-20T14:53:38.324Z,73.50
2022-09-20T14:59:17.020Z,75.71
2022-09-20T15:04:21.709Z,72.30
2022-09-20T15:09:23.207Z,75.79
2022-09-20T15:14:24.529Z,75.60
2022-09-20T15:19:26.088Z,72.68
2022-09-20T15:24:27.500Z,72.48
2022-09-20T15:29:29.100Z,72.10
2022-09-20T15:34:30.926Z,73.87
2022-09-20T15:39:32.410Z,71.76
2022-09-20T15:44:33.938Z,71.80
2022-09-20T15:49:35.538Z,71.66
2022-09-20T15:54:36.885Z,73.08
2022-09-20T15:59:38.228Z,71.14
2022-09-20T16:04:39.647Z,71.66
2022-09-20T16:09:40.965Z,75.12
2022-09-20T16:14:42.376Z,73.07
2022-09-20T16:19:46.056Z,73.93
2022-09-20T16:24:47.396Z,74.34
2022-09-20T16:29:48.641Z,74.45
2022-09-20T16:34:51.009Z,74.13
2022-09-20T16:39:52.356Z,75.19
2022-09-20T16:44:53.643Z,74.39
2022-09-20T16:49:56.222Z,76.65
2022-09-20T16:54:57.589Z,75.88
2022-09-20T16:59:59.586Z,76.37
2022-09-20T17:05:00.935Z,74.58
2022-09-20T17:10:02.564Z,76.69
2022-09-20T17:15:03.968Z,76.49
2022-09-20T17:20:07.689Z,76.25
2022-09-20T17:25:09.304Z,77.19
2022-09-20T17:30:10.933Z,76.97
2022-09-20T17:35:12.263Z,77.25
2022-09-20T17:40:13.532Z,77.96
2022-09-20T17:45:16.164Z,77.69
2022-09-20T17:50:17.565Z,77.75
2022-09-20T17:55:18.933Z,78.64
2022-09-20T18:00:20.301Z,78.53
2022-09-20T18:05:21.637Z,79.47
2022-09-20T18:10:28.684Z,79.02
2022-09-20T18:15:31.859Z,80.65
2022-09-20T18:20:33.949Z,82.18
2022-09-20T18:25:55.262Z,80.89
2022-09-20T18:31:04.358Z,82.56
2022-09-20T18:36:06.054Z,81.37
2022-09-20T18:41:07.460Z,83.85
2022-09-20T18:46:10.727Z,82.25
2022-09-20T18:51:12.032Z,83.00
2022-09-20T18:56:28.788Z,82.80
2022-09-20T19:01:48.747Z,84.09
2022-09-20T19:07:05.171Z,82.79
2022-09-20T19:12:17.612Z,83.97
2022-09-20T19:17:25.422Z,84.11
2022-09-20T19:22:50.644Z,85.13
2022-09-20T19:27:52.694Z,84.19
2022-09-20T19:32:54.224Z,87.25
2022-09-20T19:38:01.065Z,85.91
2022-09-20T19:43:45.422Z,86.10
2022-09-20T19:48:56.779Z,87.13
2022-09-20T19:53:58.498Z,86.53
2022-09-20T19:59:00.139Z,85.16
2022-09-20T20:04:03.638Z,85.09
2022-09-20T20:09:27.132Z,85.18
2022-09-20T20:14:28.444Z,87.50
2022-09-20T20:19:46.546Z,86.09
2022-09-20T20:24:47.878Z,84.04
2022-09-20T20:29:49.584Z,85.73
2022-09-20T20:34:51.181Z,86.39
2022-09-20T20:39:53.479Z,87.73
2022-09-20T20:44:54.810Z,88.14
2022-09-20T20:49:56.120Z,88.56
2022-09-20T20:54:59.907Z,89.63
2022-09-20T21:00:01.480Z,88.79
2022-09-20T21:05:02.907Z,85.58
2022-09-20T21:10:04.365Z,84.58
2022-09-20T21:15:06.069Z,89.03
2022-09-20T21:20:08.320Z,89.23
2022-09-20T21:25:09.897Z,89.19
2022-09-20T21:30:11.761Z,88.11
2022-09-20T21:35:13.077Z,91.04
2022-09-20T21:40:14.497Z,89.02
2022-09-20T21:45:20.616Z,91.99
2022-09-20T21:50:22.365Z,88.88
2022-09-20T21:55:23.690Z,90.09
2022-09-20T22:00:26.201Z,88.87
2022-09-20T22:05:27.793Z,88.08
2022-09-20T22:10:29.247Z,86.12
2022-09-20T22:15:30.532Z,87.94
2022-09-20T22:20:31.891Z,90.21
2022-09-20T22:25:34.144Z,90.82
2022-09-20T22:30:35.570Z,90.70
2022-09-20T22:35:43.384Z,91.04
2022-09-20T22:40:55.243Z,87.52
2022-09-20T22:46:06.047Z,88.14
2022-09-20T22:51:10.439Z,91.54
2022-09-20T22:56:17.041Z,92.82
2022-09-20T23:01:21.753Z,91.32
2022-09-20T23:06:32.117Z,89.55
2022-09-20T23:11:34.603Z,86.88
2022-09-20T23:16:37.834Z,89.45
2022-09-20T23:21:40.477Z,91.32
2022-09-20T23:26:43.179Z,90.95
2022-09-20T23:31:47.085Z,88.52
2022-09-20T23:36:48.732Z,92.19
2022-09-20T23:41:51.230Z,92.29
2022-09-20T23:46:52.834Z,91.97
2022-09-20T23:51:54.236Z,93.69
2022-09-20T23:56:55.548Z,93.22
